createdAt,value
2023-05-21T00:00:00.802Z,58.1620
2023-05-21T00:01:02.649Z,58.1221
2023-05-21T00:02:04.474Z,58.0676
2023-05-21T00:03:06.445Z,58.1063
2023-05-21T00:04:08.165Z,58.1088
2023-05-21T00:05:11.082Z,58.1264
2023-05-21T00:06:11.866Z,58.1140
2023-05-21T00:07:13.642Z,58.0792
2023-05-21T00:08:15.564Z,58.0657
2023-05-21T00:09:17.322Z,58.1046
2023-05-21T00:10:19.163Z,58.1213
2023-05-21T00:11:21.008Z,58.1057
2023-05-21T00:12:22.829Z,58.1241
2023-05-21T00:13:24.654Z,58.1091
2023-05-21T00:14:26.481Z,58.0887
2023-05-21T00:15:28.333Z,58.0735
2023-05-21T00:16:30.274Z,58.0683
2023-05-21T00:17:32.029Z,58.0813
2023-05-21T00:18:33.838Z,58.1176
2023-05-21T00:19:35.642Z,58.1079
2023-05-21T00:20:37.477Z,58.0872
2023-05-21T00:21:39.323Z,58.0691
2023-05-21T00:22:41.184Z,58.1068
2023-05-21T00:23:42.994Z,58.0908
2023-05-21T00:24:44.847Z,58.0821
2023-05-21T00:25:46.650Z,58.0532
2023-05-21T00:26:48.516Z,58.0004
2023-05-21T00:27:50.320Z,57.9929
2023-05-21T00:28:52.170Z,57.9676
2023-05-21T00:29:54.028Z,57.9312
2023-05-21T00:30:55.832Z,57.9434
2023-05-21T00:31:57.713Z,57.9393
2023-05-21T00:32:59.510Z,57.9592
2023-05-21T00:34:01.323Z,57.9112
2023-05-21T00:35:03.175Z,57.9004
2023-05-21T00:36:05.024Z,57.8522
2023-05-21T00:37:06.836Z,57.8127
2023-05-21T00:38:08.695Z,57.7908
2023-05-21T00:39:10.486Z,57.7694
2023-05-21T00:40:12.312Z,57.7447
2023-05-21T00:41:14.163Z,57.7971
2023-05-21T00:42:16.048Z,57.8086
2023-05-21T00:43:17.819Z,57.7586
2023-05-21T00:44:19.723Z,57.7586
2023-05-21T00:45:21.493Z,57.7731
2023-05-21T00:46:23.357Z,57.7840
2023-05-21T00:47:25.190Z,57.7700
2023-05-21T00:48:27.006Z,57.7471
2023-05-21T00:49:28.804Z,57.7477
2023-05-21T00:50:30.634Z,57.7155
2023-05-21T00:51:32.481Z,57.7037
2023-05-21T00:52:34.323Z,57.6558
2023-05-21T00:53:36.136Z,57.6443
2023-05-21T00:54:37.971Z,57.5884
2023-05-21T00:55:39.792Z,57.5851
2023-05-21T00:56:41.658Z,57.5655
2023-05-21T00:57:43.472Z,57.5321
2023-05-21T00:58:45.293Z,57.5091
2023-05-21T00:59:47.149Z,57.4984
2023-05-21T01:00:48.973Z,57.5814
2023-05-21T01:01:50.809Z,57.6138
2023-05-21T01:02:52.691Z,57.5751
2023-05-21T01:03:54.468Z,57.5731
2023-05-21T01:04:56.328Z,57.5519
2023-05-21T01:05:58.114Z,57.5485
2023-05-21T01:06:59.963Z,57.5530
2023-05-21T01:08:01.828Z,57.5570
2023-05-21T01:09:04.957Z,57.5612
2023-05-21T01:10:05.553Z,57.5276
2023-05-21T01:11:07.304Z,57.5198
2023-05-21T01:12:09.128Z,57.4921
2023-05-21T01:13:10.988Z,57.4688
2023-05-21T01:14:12.874Z,57.4761
2023-05-21T01:15:14.641Z,57.4471
2023-05-21T01:16:16.523Z,57.4347
2023-05-21T01:17:18.380Z,57.4464
2023-05-21T01:18:20.203Z,57.4984
2023-05-21T01:19:22.045Z,57.4999
2023-05-21T01:20:23.836Z,57.4517
2023-05-21T01:21:25.654Z,57.4507
2023-05-21T01:22:27.508Z,57.4408
2023-05-21T01:23:29.377Z,57.4304
2023-05-21T01:24:31.167Z,57.4314
2023-05-21T01:25:33.007Z,57.4265
2023-05-21T01:26:34.847Z,57.4192
2023-05-21T01:27:36.683Z,57.3979
2023-05-21T01:28:38.539Z,57.3822
2023-05-21T01:29:40.338Z,57.3814
2023-05-21T01:30:42.186Z,57.4003
2023-05-21T01:31:44.022Z,57.3861
2023-05-21T01:32:45.878Z,57.4138
2023-05-21T01:33:47.738Z,57.4239
2023-05-21T01:34:49.555Z,57.3775
2023-05-21T01:35:51.378Z,57.3478
2023-05-21T01:36:53.190Z,57.3804
2023-05-21T01:37:55.036Z,57.3480
2023-05-21T01:38:56.869Z,57.3840
2023-05-21T01:39:58.702Z,57.3723
2023-05-21T01:41:00.560Z,57.4296
2023-05-21T01:42:02.377Z,57.4496
2023-05-21T01:43:04.189Z,57.4242
2023-05-21T01:44:06.069Z,57.3770
2023-05-21T01:45:07.873Z,57.3230
2023-05-21T01:46:09.709Z,57.3250
2023-05-21T01:47:11.586Z,57.3475
2023-05-21T01:48:13.413Z,57.3571
2023-05-21T01:49:15.208Z,57.3422
2023-05-21T01:50:17.039Z,57.3354
2023-05-21T01:51:18.888Z,57.3330
2023-05-21T01:52:20.712Z,57.3239
2023-05-21T01:53:22.548Z,57.3228
2023-05-21T01:54:24.412Z,57.3148
2023-05-21T01:55:26.233Z,57.3202
2023-05-21T01:56:28.039Z,57.3208
2023-05-21T01:57:29.942Z,57.3071
2023-05-21T01:58:31.723Z,57.3429
2023-05-21T01:59:33.547Z,57.3283
2023-05-21T02:00:35.396Z,57.3327
2023-05-21T02:01:37.301Z,57.3394
2023-05-21T02:02:39.084Z,57.3826
2023-05-21T02:03:41.084Z,57.3625
2023-05-21T02:04:42.726Z,57.3243
2023-05-21T02:05:44.555Z,57.3121
2023-05-21T02:06:46.396Z,57.3119
2023-05-21T02:07:48.221Z,57.2662
2023-05-21T02:08:50.042Z,57.2709
2023-05-21T02:09:51.895Z,57.2774
2023-05-21T02:11:01.288Z,57.2641
2023-05-21T02:11:55.555Z,57.2905
2023-05-21T02:12:57.408Z,57.3185
2023-05-21T02:13:59.228Z,57.3017
2023-05-21T02:15:01.086Z,57.3503
2023-05-21T02:16:02.934Z,57.3626
2023-05-21T02:17:04.781Z,57.3633
2023-05-21T02:18:06.623Z,57.3482
2023-05-21T02:19:08.451Z,57.3500
2023-05-21T02:20:10.276Z,57.3368
2023-05-21T02:21:12.089Z,57.3046
2023-05-21T02:22:13.969Z,57.3125
2023-05-21T02:23:15.790Z,57.3304
2023-05-21T02:24:17.608Z,57.3524
2023-05-21T02:25:19.462Z,57.3801
2023-05-21T02:26:21.257Z,57.3830
2023-05-21T02:27:23.108Z,57.3930
2023-05-21T02:28:24.973Z,57.3532
2023-05-21T02:29:26.812Z,57.3640
2023-05-21T02:30:28.688Z,57.3899
2023-05-21T02:31:30.428Z,57.4066
2023-05-21T02:32:32.343Z,57.3826
2023-05-21T02:33:34.169Z,57.3794
2023-05-21T02:34:35.942Z,57.4042
2023-05-21T02:35:37.990Z,57.3840
2023-05-21T02:36:39.635Z,57.4133
2023-05-21T02:37:41.454Z,57.3923
2023-05-21T02:38:43.293Z,57.3995
2023-05-21T02:39:45.115Z,57.3819
2023-05-21T02:40:54.434Z,57.3728
2023-05-21T02:41:48.774Z,57.3746
2023-05-21T02:42:50.599Z,57.3402
2023-05-21T02:43:52.470Z,57.3424
2023-05-21T02:44:54.279Z,57.3187
2023-05-21T02:45:56.146Z,57.2884
2023-05-21T02:46:57.927Z,57.3113
2023-05-21T02:47:59.863Z,57.3010
2023-05-21T02:49:01.609Z,57.2926
2023-05-21T02:50:03.442Z,57.3568
2023-05-21T02:51:05.259Z,57.3571
2023-05-21T02:52:07.145Z,57.3364
2023-05-21T02:53:08.936Z,57.3222
2023-05-21T02:54:10.756Z,57.3360
2023-05-21T02:55:12.624Z,57.2848
2023-05-21T02:56:14.452Z,57.2818
2023-05-21T02:57:16.323Z,57.2284
2023-05-21T02:58:18.091Z,57.2201
2023-05-21T02:59:19.954Z,57.1638
2023-05-21T03:00:21.762Z,57.1633
2023-05-21T03:01:23.714Z,57.1466
2023-05-21T03:02:25.558Z,57.1264
2023-05-21T03:03:27.460Z,57.0956
2023-05-21T03:04:29.113Z,57.0748
2023-05-21T03:05:30.938Z,57.0744
2023-05-21T03:06:32.775Z,57.0629
2023-05-21T03:07:34.635Z,57.0642
2023-05-21T03:08:36.477Z,57.0865
2023-05-21T03:09:38.289Z,57.1085
2023-05-21T03:10:40.126Z,57.0789
2023-05-21T03:11:41.989Z,57.0503
2023-05-21T03:12:43.776Z,57.0091
2023-05-21T03:13:45.653Z,56.9659
2023-05-21T03:14:47.464Z,56.9628
2023-05-21T03:15:49.290Z,56.9341
2023-05-21T03:16:51.152Z,56.8936
2023-05-21T03:17:53.004Z,56.8633
2023-05-21T03:18:54.825Z,56.8727
2023-05-21T03:19:56.653Z,56.8591
2023-05-21T03:20:58.474Z,56.8089
2023-05-21T03:22:00.298Z,56.7662
2023-05-21T03:23:02.138Z,56.7227
2023-05-21T03:24:03.972Z,56.7005
2023-05-21T03:25:05.798Z,56.7068
2023-05-21T03:26:07.626Z,56.6831
2023-05-21T03:27:09.472Z,56.6983
2023-05-21T03:28:11.302Z,56.6532
2023-05-21T03:29:13.203Z,56.6672
2023-05-21T03:30:15.056Z,56.6774
2023-05-21T03:31:16.885Z,56.6951
2023-05-21T03:32:18.771Z,56.6795
2023-05-21T03:33:20.546Z,56.6602
2023-05-21T03:34:22.371Z,56.6545
2023-05-21T03:35:24.201Z,56.6603
2023-05-21T03:36:26.047Z,56.6950
2023-05-21T03:37:27.883Z,56.7014
2023-05-21T03:38:29.708Z,56.6681
2023-05-21T03:39:31.541Z,56.6116
2023-05-21T03:40:33.378Z,56.5944
2023-05-21T03:41:35.227Z,56.5703
2023-05-21T03:42:37.061Z,56.5779
2023-05-21T03:43:46.413Z,56.6039
2023-05-21T03:44:40.746Z,56.5562
2023-05-21T03:45:44.272Z,56.5441
2023-05-21T03:46:44.414Z,56.5405
2023-05-21T03:47:46.266Z,56.5441
2023-05-21T03:48:48.066Z,56.5242
2023-05-21T03:49:49.917Z,56.5689
2023-05-21T03:50:51.788Z,56.6135
2023-05-21T03:51:53.576Z,56.6149
2023-05-21T03:52:55.407Z,56.5541
2023-05-21T03:53:57.256Z,56.5475
2023-05-21T03:54:59.096Z,56.5740
2023-05-21T03:56:00.931Z,56.5899
2023-05-21T03:57:02.800Z,56.5853
2023-05-21T03:58:04.611Z,56.5905
2023-05-21T03:59:06.437Z,56.5765
2023-05-21T04:00:08.295Z,56.5538
2023-05-21T04:01:10.119Z,56.5732
2023-05-21T04:02:11.977Z,56.5748
2023-05-21T04:03:13.846Z,56.6258
2023-05-21T04:04:15.730Z,56.6337
2023-05-21T04:05:17.461Z,56.6357
2023-05-21T04:06:19.314Z,56.6453
2023-05-21T04:07:21.128Z,56.6602
2023-05-21T04:08:23.002Z,56.6823
2023-05-21T04:09:24.825Z,56.6770
2023-05-21T04:10:26.640Z,56.6707
2023-05-21T04:11:28.487Z,56.6986
2023-05-21T04:12:30.306Z,56.7356
2023-05-21T04:13:32.146Z,56.7893
2023-05-21T04:14:34.015Z,56.7858
2023-05-21T04:15:36.132Z,56.7341
2023-05-21T04:16:37.917Z,56.7423
2023-05-21T04:17:39.556Z,56.7187
2023-05-21T04:18:42.450Z,56.7148
2023-05-21T04:19:43.163Z,56.7343
2023-05-21T04:20:44.999Z,56.7400
2023-05-21T04:21:46.829Z,56.7461
2023-05-21T04:22:48.669Z,56.7737
2023-05-21T04:23:50.489Z,56.7530
2023-05-21T04:24:52.337Z,56.7375
2023-05-21T04:25:54.174Z,56.7209
2023-05-21T04:26:56.009Z,56.6630
2023-05-21T04:27:57.858Z,56.6140
2023-05-21T04:28:59.682Z,56.5929
2023-05-21T04:30:01.511Z,56.5529
2023-05-21T04:31:03.388Z,56.5413
2023-05-21T04:32:05.186Z,56.5858
2023-05-21T04:33:07.043Z,56.5823
2023-05-21T04:34:08.842Z,56.5417
2023-05-21T04:35:10.664Z,56.5919
2023-05-21T04:36:12.512Z,56.6629
2023-05-21T04:37:14.316Z,56.6735
2023-05-21T04:38:16.150Z,56.6369
2023-05-21T04:39:17.986Z,56.6413
2023-05-21T04:40:19.821Z,56.6669
2023-05-21T04:41:21.649Z,56.6680
2023-05-21T04:42:23.471Z,56.6805
2023-05-21T04:43:25.330Z,56.6821
2023-05-21T04:44:27.179Z,56.6726
2023-05-21T04:45:28.985Z,56.6667
2023-05-21T04:46:40.295Z,56.6454
2023-05-21T04:47:31.340Z,56.6567
2023-05-21T04:48:32.897Z,56.6729
2023-05-21T04:49:34.488Z,56.6579
2023-05-21T04:50:36.018Z,56.6772
2023-05-21T04:51:37.562Z,56.6971
2023-05-21T04:52:39.160Z,56.7079
2023-05-21T04:53:40.685Z,56.7214
2023-05-21T04:54:42.238Z,56.7722
2023-05-21T04:55:43.793Z,56.8078
2023-05-21T04:56:45.365Z,56.7804
2023-05-21T04:57:46.924Z,56.7578
2023-05-21T04:58:48.487Z,56.7557
2023-05-21T04:59:50.055Z,56.7582
2023-05-21T05:00:51.859Z,56.8018
2023-05-21T05:01:53.568Z,56.7791
2023-05-21T05:02:55.489Z,56.7429
2023-05-21T05:03:57.412Z,56.7322
2023-05-21T05:04:59.105Z,56.6970
2023-05-21T05:06:00.929Z,56.6762
2023-05-21T05:07:02.765Z,56.6825
2023-05-21T05:08:04.576Z,56.6649
2023-05-21T05:09:06.419Z,56.6535
2023-05-21T05:10:08.260Z,56.6610
2023-05-21T05:11:10.075Z,56.6404
2023-05-21T05:12:11.907Z,56.6155
2023-05-21T05:13:13.776Z,56.6123
2023-05-21T05:14:15.568Z,56.5752
2023-05-21T05:15:17.445Z,56.5642
2023-05-21T05:16:19.292Z,56.5463
2023-05-21T05:17:21.084Z,56.5256
2023-05-21T05:18:22.952Z,56.4965
2023-05-21T05:19:24.819Z,56.5060
2023-05-21T05:20:26.605Z,56.5108
2023-05-21T05:21:28.432Z,56.4927
2023-05-21T05:22:30.254Z,56.4593
2023-05-21T05:23:32.102Z,56.4664
2023-05-21T05:24:33.948Z,56.4588
2023-05-21T05:25:35.983Z,56.4628
2023-05-21T05:26:37.625Z,56.4934
2023-05-21T05:27:39.442Z,56.4955
2023-05-21T05:28:41.259Z,56.4889
2023-05-21T05:29:43.091Z,56.5090
2023-05-21T05:30:44.989Z,56.5168
2023-05-21T05:31:46.769Z,56.4885
2023-05-21T05:32:48.632Z,56.5027
2023-05-21T05:33:50.421Z,56.4948
2023-05-21T05:34:52.277Z,56.5255
2023-05-21T05:35:54.099Z,56.5444
2023-05-21T05:36:55.933Z,56.5285
2023-05-21T05:37:57.749Z,56.5281
2023-05-21T05:38:59.585Z,56.5283
2023-05-21T05:40:01.416Z,56.5345
2023-05-21T05:41:11.347Z,56.5533
2023-05-21T05:42:05.101Z,56.5100
2023-05-21T05:43:06.941Z,56.5233
2023-05-21T05:44:10.820Z,56.5197
2023-05-21T05:45:10.580Z,56.4871
2023-05-21T05:46:12.484Z,56.4666
2023-05-21T05:47:14.277Z,56.4829
2023-05-21T05:48:16.094Z,56.5129
2023-05-21T05:49:25.441Z,56.5093
2023-05-21T05:50:19.743Z,56.5169
2023-05-21T05:51:21.647Z,56.5033
2023-05-21T05:52:23.430Z,56.5245
2023-05-21T05:53:25.265Z,56.5363
2023-05-21T05:54:27.096Z,56.5343
2023-05-21T05:55:28.921Z,56.5640
2023-05-21T05:56:30.774Z,56.5656
2023-05-21T05:57:32.579Z,56.5345
2023-05-21T05:58:34.432Z,56.5723
2023-05-21T05:59:36.254Z,56.5410
2023-05-21T06:00:38.114Z,56.5622
2023-05-21T06:01:39.961Z,56.5946
2023-05-21T06:02:41.792Z,56.6317
2023-05-21T06:03:43.731Z,56.5994
2023-05-21T06:04:45.450Z,56.6176
2023-05-21T06:05:47.319Z,56.6358
2023-05-21T06:06:49.122Z,56.6863
2023-05-21T06:07:50.964Z,56.6645
2023-05-21T06:08:52.785Z,56.6477
2023-05-21T06:09:54.599Z,56.6659
2023-05-21T06:10:56.449Z,56.6453
2023-05-21T06:11:58.269Z,56.6672
2023-05-21T06:13:00.135Z,56.6925
2023-05-21T06:14:01.929Z,56.7142
2023-05-21T06:15:03.762Z,56.7128
2023-05-21T06:16:05.629Z,56.7113
2023-05-21T06:17:07.452Z,56.7088
2023-05-21T06:18:09.324Z,56.7196
2023-05-21T06:19:11.185Z,56.7288
2023-05-21T06:20:12.933Z,56.7294
2023-05-21T06:21:14.779Z,56.7666
2023-05-21T06:22:16.591Z,56.7986
2023-05-21T06:23:18.438Z,56.8328
2023-05-21T06:24:20.272Z,56.8841
2023-05-21T06:25:22.139Z,56.8851
2023-05-21T06:26:23.953Z,56.8701
2023-05-21T06:27:25.858Z,56.9436
2023-05-21T06:28:27.586Z,56.9197
2023-05-21T06:29:29.447Z,56.9066
2023-05-21T06:30:31.273Z,56.9250
2023-05-21T06:31:33.175Z,56.9249
2023-05-21T06:32:34.975Z,56.9728
2023-05-21T06:33:36.880Z,57.0059
2023-05-21T06:34:38.615Z,57.0484
2023-05-21T06:35:40.456Z,57.1061
2023-05-21T06:36:42.265Z,57.1259
2023-05-21T06:37:44.100Z,57.1524
2023-05-21T06:38:45.936Z,57.1632
2023-05-21T06:39:47.780Z,57.2033
2023-05-21T06:40:49.605Z,57.2162
2023-05-21T06:41:51.451Z,57.2506
2023-05-21T06:42:53.278Z,57.3212
2023-05-21T06:43:55.094Z,57.3532
2023-05-21T06:44:56.946Z,57.4093
2023-05-21T06:45:58.811Z,57.4667
2023-05-21T06:47:00.607Z,57.4750
2023-05-21T06:48:02.503Z,57.5070
2023-05-21T06:49:04.274Z,57.5249
2023-05-21T06:50:06.094Z,57.5803
2023-05-21T06:51:07.946Z,57.6530
2023-05-21T06:52:17.298Z,57.7175
2023-05-21T06:53:11.624Z,57.6992
2023-05-21T06:54:13.440Z,57.7146
2023-05-21T06:55:15.276Z,57.7048
2023-05-21T06:56:17.135Z,57.7043
2023-05-21T06:57:18.950Z,57.7124
2023-05-21T06:58:20.798Z,57.7307
2023-05-21T06:59:22.654Z,57.7807
2023-05-21T07:00:24.448Z,57.7920
2023-05-21T07:01:26.334Z,57.7780
2023-05-21T07:02:28.186Z,57.7957
2023-05-21T07:03:30.072Z,57.8213
2023-05-21T07:04:31.794Z,57.8718
2023-05-21T07:05:33.631Z,57.8437
2023-05-21T07:06:35.460Z,57.8130
2023-05-21T07:07:37.275Z,57.8103
2023-05-21T07:08:39.138Z,57.8043
2023-05-21T07:09:40.943Z,57.8133
2023-05-21T07:10:42.804Z,57.7948
2023-05-21T07:11:44.627Z,57.7996
2023-05-21T07:12:46.480Z,57.7864
2023-05-21T07:13:48.286Z,57.7755
2023-05-21T07:14:50.114Z,57.7849
2023-05-21T07:15:51.964Z,57.7781
2023-05-21T07:16:53.849Z,57.7539
2023-05-21T07:17:55.628Z,57.7531
2023-05-21T07:18:57.514Z,57.7700
2023-05-21T07:19:59.269Z,57.7754
2023-05-21T07:21:01.107Z,57.7903
2023-05-21T07:22:02.966Z,57.8006
2023-05-21T07:23:04.785Z,57.7755
2023-05-21T07:24:06.629Z,57.7825
2023-05-21T07:25:08.441Z,57.8127
2023-05-21T07:26:10.287Z,57.7675
2023-05-21T07:27:24.855Z,57.8006
2023-05-21T07:28:14.943Z,57.8089
2023-05-21T07:29:15.789Z,57.8407
2023-05-21T07:30:17.618Z,57.8591
2023-05-21T07:31:19.477Z,57.8510
2023-05-21T07:32:21.389Z,57.8734
2023-05-21T07:33:23.167Z,57.9003
2023-05-21T07:34:25.038Z,57.9149
2023-05-21T07:35:26.812Z,57.9058
2023-05-21T07:36:28.641Z,57.9057
2023-05-21T07:37:30.547Z,57.9133
2023-05-21T07:38:32.300Z,57.9153
2023-05-21T07:39:34.160Z,57.9734
2023-05-21T07:40:35.995Z,57.9637
2023-05-21T07:41:37.827Z,57.9585
2023-05-21T07:42:39.654Z,57.9739
2023-05-21T07:43:41.489Z,57.9949
2023-05-21T07:44:43.514Z,58.0007
2023-05-21T07:45:45.172Z,58.0573
2023-05-21T07:46:47.058Z,58.1153
2023-05-21T07:47:48.874Z,58.1581
2023-05-21T07:48:50.675Z,58.1230
2023-05-21T07:49:52.489Z,58.1299
2023-05-21T07:50:54.312Z,58.1812
2023-05-21T07:51:56.171Z,58.2003
2023-05-21T07:52:58.040Z,58.2125
2023-05-21T07:54:07.327Z,58.2136
2023-05-21T07:55:01.688Z,58.2438
2023-05-21T07:56:03.492Z,58.2302
2023-05-21T07:57:05.366Z,58.2659
2023-05-21T07:58:07.175Z,58.3167
2023-05-21T07:59:08.988Z,58.2968
2023-05-21T08:00:10.850Z,58.2582
2023-05-21T08:01:12.648Z,58.2122
2023-05-21T08:02:14.487Z,58.2011
2023-05-21T08:03:16.570Z,58.2530
2023-05-21T08:04:18.226Z,58.2774
2023-05-21T08:05:19.984Z,58.2962
2023-05-21T08:06:21.805Z,58.3136
2023-05-21T08:07:23.651Z,58.3846
2023-05-21T08:08:25.474Z,58.4356
2023-05-21T08:09:27.321Z,58.4335
2023-05-21T08:10:29.157Z,58.4462
2023-05-21T08:11:30.969Z,58.4491
2023-05-21T08:12:32.815Z,58.4983
2023-05-21T08:13:34.622Z,58.5482
2023-05-21T08:14:36.471Z,58.5518
2023-05-21T08:15:38.514Z,58.5352
2023-05-21T08:16:40.284Z,58.5399
2023-05-21T08:17:42.043Z,58.5761
2023-05-21T08:18:43.842Z,58.5742
2023-05-21T08:19:45.665Z,58.6010
2023-05-21T08:20:47.504Z,58.5869
2023-05-21T08:21:51.343Z,58.5935
2023-05-21T08:22:51.162Z,58.6515
2023-05-21T08:23:53.006Z,58.6555
2023-05-21T08:24:54.811Z,58.6571
2023-05-21T08:25:56.670Z,58.6737
2023-05-21T08:26:58.513Z,58.7239
2023-05-21T08:28:00.311Z,58.8050
2023-05-21T08:29:02.163Z,58.8562
2023-05-21T08:30:03.984Z,58.9309
2023-05-21T08:31:05.822Z,59.0310
2023-05-21T08:32:07.788Z,59.0691
2023-05-21T08:33:09.527Z,59.1644
2023-05-21T08:34:11.321Z,59.2197
2023-05-21T08:35:13.182Z,59.2367
2023-05-21T08:36:15.141Z,59.2563
2023-05-21T08:37:16.805Z,59.2731
2023-05-21T08:38:18.653Z,59.2377
2023-05-21T08:39:20.490Z,59.2731
2023-05-21T08:40:22.325Z,59.2802
2023-05-21T08:41:24.160Z,59.2982
2023-05-21T08:42:36.385Z,59.2322
2023-05-21T08:43:30.953Z,59.2407
2023-05-21T08:44:31.480Z,59.2313
2023-05-21T08:45:33.048Z,59.2553
2023-05-21T08:46:34.649Z,59.3144
2023-05-21T08:47:36.251Z,59.3440
2023-05-21T08:48:37.695Z,59.3710
2023-05-21T08:49:46.754Z,59.4056
2023-05-21T08:50:40.824Z,59.4575
2023-05-21T08:51:42.488Z,59.4702
2023-05-21T08:52:44.326Z,59.4673
2023-05-21T08:53:46.130Z,59.4703
2023-05-21T08:54:47.949Z,59.4471
2023-05-21T08:55:51.697Z,59.4650
2023-05-21T08:56:59.427Z,59.4806
2023-05-21T08:57:53.454Z,59.5032
2023-05-21T08:58:55.367Z,59.5401
2023-05-21T08:59:57.126Z,59.5869
2023-05-21T09:00:59.008Z,59.6249
2023-05-21T09:02:00.858Z,59.6673
2023-05-21T09:03:02.672Z,59.7291
2023-05-21T09:04:18.957Z,59.7041
2023-05-21T09:05:08.338Z,59.6457
2023-05-21T09:06:08.892Z,59.6140
2023-05-21T09:07:10.502Z,59.6686
2023-05-21T09:08:12.019Z,59.6993
2023-05-21T09:09:13.645Z,59.6839
2023-05-21T09:10:15.480Z,59.6984
2023-05-21T09:11:17.309Z,59.7767
2023-05-21T09:12:19.166Z,59.8258
2023-05-21T09:13:20.995Z,59.8422
2023-05-21T09:14:22.848Z,59.8811
2023-05-21T09:15:24.659Z,59.9113
2023-05-21T09:16:26.498Z,59.8656
2023-05-21T09:17:28.333Z,59.8423
2023-05-21T09:18:30.134Z,59.7983
2023-05-21T09:19:32.044Z,59.7224
2023-05-21T09:20:33.842Z,59.6765
2023-05-21T09:21:35.646Z,59.6595
2023-05-21T09:22:37.489Z,59.5826
2023-05-21T09:23:39.313Z,59.5743
2023-05-21T09:24:41.158Z,59.5789
2023-05-21T09:25:42.973Z,59.5775
2023-05-21T09:26:44.815Z,59.5817
2023-05-21T09:27:46.660Z,59.6397
2023-05-21T09:28:48.497Z,59.6068
2023-05-21T09:29:50.335Z,59.5781
2023-05-21T09:30:52.158Z,59.5737
2023-05-21T09:31:54.105Z,59.5372
2023-05-21T09:32:55.914Z,59.5204
2023-05-21T09:33:57.668Z,59.5054
2023-05-21T09:34:59.496Z,59.5366
2023-05-21T09:36:01.323Z,59.5423
2023-05-21T09:37:04.990Z,59.5775
2023-05-21T09:38:05.015Z,59.6081
2023-05-21T09:39:06.832Z,59.5502
2023-05-21T09:40:08.660Z,59.4671
2023-05-21T09:41:10.500Z,59.4499
2023-05-21T09:42:12.338Z,59.3978
2023-05-21T09:43:14.184Z,59.3502
2023-05-21T09:44:16.023Z,59.3528
2023-05-21T09:45:17.876Z,59.3230
2023-05-21T09:46:19.718Z,59.3218
2023-05-21T09:47:21.578Z,59.2993
2023-05-21T09:48:23.359Z,59.2923
2023-05-21T09:49:25.246Z,59.2691
2023-05-21T09:50:27.016Z,59.2045
2023-05-21T09:51:28.872Z,59.1705
2023-05-21T09:52:30.718Z,59.1426
2023-05-21T09:53:32.546Z,59.1813
2023-05-21T09:54:34.379Z,59.2356
2023-05-21T09:55:36.213Z,59.2780
2023-05-21T09:56:38.056Z,59.2976
2023-05-21T09:57:39.870Z,59.2728
2023-05-21T09:58:41.732Z,59.3086
2023-05-21T09:59:51.084Z,59.3235
2023-05-21T10:00:45.637Z,59.3273
2023-05-21T10:01:47.294Z,59.3567
2023-05-21T10:02:49.125Z,59.4170
2023-05-21T10:03:50.934Z,59.4296
2023-05-21T10:04:52.764Z,59.4695
2023-05-21T10:05:54.588Z,59.4587
2023-05-21T10:06:56.403Z,59.4675
2023-05-21T10:07:58.246Z,59.4512
2023-05-21T10:09:00.842Z,59.4781
2023-05-21T10:10:01.935Z,59.4883
2023-05-21T10:11:03.758Z,59.5328
2023-05-21T10:12:05.596Z,59.5373
2023-05-21T10:13:07.441Z,59.5418
2023-05-21T10:14:09.299Z,59.5943
2023-05-21T10:15:11.106Z,59.6872
2023-05-21T10:16:12.978Z,59.7006
2023-05-21T10:17:14.761Z,59.7197
2023-05-21T10:18:16.619Z,59.7268
2023-05-21T10:19:18.495Z,59.7785
2023-05-21T10:20:20.270Z,59.8361
2023-05-21T10:21:22.090Z,59.8447
2023-05-21T10:22:23.934Z,59.8075
2023-05-21T10:23:25.772Z,59.7902
2023-05-21T10:24:27.619Z,59.8358
2023-05-21T10:25:29.421Z,59.8231
2023-05-21T10:26:31.259Z,59.8269
2023-05-21T10:27:33.148Z,59.8618
2023-05-21T10:28:34.946Z,59.8742
2023-05-21T10:29:36.797Z,59.8784
2023-05-21T10:30:38.862Z,59.8992
2023-05-21T10:31:40.451Z,59.9030
2023-05-21T10:32:42.358Z,59.9074
2023-05-21T10:33:44.129Z,59.9217
2023-05-21T10:34:45.976Z,59.8889
2023-05-21T10:35:47.799Z,59.8558
2023-05-21T10:36:49.607Z,59.8156
2023-05-21T10:37:51.443Z,59.8352
2023-05-21T10:38:53.334Z,59.8581
2023-05-21T10:39:55.141Z,59.8186
2023-05-21T10:40:56.955Z,59.7639
2023-05-21T10:41:59.309Z,59.7065
2023-05-21T10:43:00.622Z,59.6417
2023-05-21T10:44:02.448Z,59.5959
2023-05-21T10:45:04.355Z,59.5674
2023-05-21T10:46:06.200Z,59.5792
2023-05-21T10:47:07.972Z,59.5674
2023-05-21T10:48:09.832Z,59.5829
2023-05-21T10:49:11.637Z,59.6277
2023-05-21T10:50:13.473Z,59.6714
2023-05-21T10:51:15.288Z,59.6974
2023-05-21T10:52:17.122Z,59.7440
2023-05-21T10:53:18.975Z,59.7225
2023-05-21T10:54:20.805Z,59.7206
2023-05-21T10:55:22.693Z,59.7251
2023-05-21T10:56:24.461Z,59.7299
2023-05-21T10:57:26.319Z,59.7106
2023-05-21T10:58:30.048Z,59.6994
2023-05-21T10:59:29.982Z,59.6776
2023-05-21T11:00:31.833Z,59.6195
2023-05-21T11:01:33.686Z,59.5795
2023-05-21T11:02:43.124Z,59.5154
2023-05-21T11:03:38.092Z,59.4659
2023-05-21T11:04:39.143Z,59.4741
2023-05-21T11:05:40.988Z,59.4443
2023-05-21T11:06:42.810Z,59.4632
2023-05-21T11:07:44.661Z,59.4736
2023-05-21T11:08:46.480Z,59.4561
2023-05-21T11:09:48.326Z,59.4939
2023-05-21T11:10:50.159Z,59.5159
2023-05-21T11:11:51.988Z,59.5880
2023-05-21T11:12:53.804Z,59.6555
2023-05-21T11:13:55.656Z,59.6515
2023-05-21T11:14:57.487Z,59.6534
2023-05-21T11:15:59.409Z,59.6135
2023-05-21T11:17:01.219Z,59.5536
2023-05-21T11:18:03.029Z,59.4869
2023-05-21T11:19:04.854Z,59.4154
2023-05-21T11:20:06.628Z,59.3191
2023-05-21T11:21:08.473Z,59.2811
2023-05-21T11:22:10.322Z,59.3465
2023-05-21T11:23:12.130Z,59.3403
2023-05-21T11:24:13.974Z,59.2915
2023-05-21T11:25:15.797Z,59.3184
2023-05-21T11:26:17.635Z,59.3392
2023-05-21T11:27:19.491Z,59.3345
2023-05-21T11:28:21.291Z,59.3555
2023-05-21T11:29:23.128Z,59.3445
2023-05-21T11:30:24.959Z,59.3428
2023-05-21T11:31:26.939Z,59.3717
2023-05-21T11:32:28.746Z,59.3360
2023-05-21T11:33:30.465Z,59.2072
2023-05-21T11:34:32.291Z,59.1225
2023-05-21T11:35:34.138Z,59.0485
2023-05-21T11:36:36.230Z,58.9298
2023-05-21T11:37:37.887Z,58.8380
2023-05-21T11:38:39.760Z,58.7306
2023-05-21T11:39:41.550Z,58.5875
2023-05-21T11:40:43.372Z,58.4484
2023-05-21T11:41:45.259Z,58.3393
2023-05-21T11:42:47.069Z,58.3176
2023-05-21T11:43:48.916Z,58.3476
2023-05-21T11:44:50.736Z,58.3038
2023-05-21T11:45:52.564Z,58.3020
2023-05-21T11:46:54.427Z,58.3135
2023-05-21T11:47:56.336Z,58.4598
2023-05-21T11:48:58.101Z,58.4707
2023-05-21T11:49:59.926Z,58.4619
2023-05-21T11:51:01.735Z,58.4827
2023-05-21T11:52:03.632Z,58.4205
2023-05-21T11:53:05.409Z,58.3605
2023-05-21T11:54:07.240Z,58.2696
2023-05-21T11:55:16.600Z,58.1677
2023-05-21T11:56:10.918Z,58.1221
2023-05-21T11:57:12.759Z,58.0411
2023-05-21T11:58:14.581Z,57.9934
2023-05-21T11:59:18.705Z,57.9106
2023-05-21T12:00:18.275Z,57.7742
2023-05-21T12:01:20.098Z,57.6579
2023-05-21T12:02:21.976Z,57.4935
2023-05-21T12:03:23.859Z,57.1933
2023-05-21T12:04:25.595Z,56.9895
2023-05-21T12:05:27.453Z,56.8798
2023-05-21T12:06:29.374Z,56.7491
2023-05-21T12:07:31.253Z,56.5751
2023-05-21T12:08:32.919Z,56.4484
2023-05-21T12:09:34.796Z,56.3904
2023-05-21T12:10:36.747Z,56.3492
2023-05-21T12:11:38.416Z,56.3457
2023-05-21T12:12:53.229Z,56.3525
2023-05-21T12:13:45.305Z,56.4205
2023-05-21T12:14:45.813Z,56.3951
2023-05-21T12:15:47.366Z,56.3343
2023-05-21T12:16:48.947Z,56.3382
2023-05-21T12:17:50.534Z,56.4065
2023-05-21T12:18:52.075Z,56.3809
2023-05-21T12:19:53.626Z,56.3728
2023-05-21T12:20:55.147Z,56.3669
2023-05-21T12:21:56.756Z,56.3358
2023-05-21T12:22:58.636Z,56.3175
2023-05-21T12:24:00.441Z,56.2939
2023-05-21T12:25:02.276Z,56.2427
2023-05-21T12:26:04.118Z,56.1772
2023-05-21T12:27:05.929Z,56.1330